ADDS - METARS form results

Aviation Digital Data Service (ADDS)

Output produced by METARs form (1817 UTC 09 July 2020)
found at http://aviationweather.gov/metar/data/
 
METAR text: KPNT 091755Z AUTO 14008KT 10SM BKN038 BKN047 BKN060 31/22 A2988 RMK AO2 T03080223 10318 20225
Conditions at: KPNT (PONTIAC , IL, US) observed 1755 UTC 09 July 2020
Temperature: 30.8°C (87°F)
Dewpoint: 22.3°C (72°F) [RH = 61%]
Pressure (altimeter): 29.88 inches Hg (1011.9 mb)
Winds: from the SE (140 degrees) at 9 MPH (8 knots; 4.1 m/s)
Visibility: 10 or more miles (16+ km)
Ceiling: 3800 feet AGL
Clouds: broken clouds at 3800 feet AGL
broken clouds at 4700 feet AGL
broken clouds at 6000 feet AGL
Weather: automated observation with no human augmentation;
there may or may not be significant weather present at this time

METAR text: KPNT 091735Z AUTO 15008KT 10SM SCT036 SCT044 31/23 A2989 RMK AO2 T03120228
Conditions at: KPNT (PONTIAC , IL, US) observed 1735 UTC 09 July 2020
Temperature: 31.2°C (88°F)
Dewpoint: 22.8°C (73°F) [RH = 61%]
Pressure (altimeter): 29.89 inches Hg (1012.3 mb)
Winds: from the SSE (150 degrees) at 9 MPH (8 knots; 4.1 m/s)
Visibility: 10 or more miles (16+ km)
Ceiling: at least 12,000 feet AGL
Clouds: scattered clouds at 3600 feet AGL
scattered clouds at 4400 feet AGL
Weather: automated observation with no human augmentation;
there may or may not be significant weather present at this time